sensor_id;sensor_type;location;lat;lon;timestamp;temperature;humidity
9668;DHT22;4872;48.316;10.650;2023-05-16T04:05:35;8.50;99.90
9668;DHT22;4872;48.316;10.650;2023-05-16T04:08:02;8.60;99.90
9668;DHT22;4872;48.316;10.650;2023-05-16T04:10:29;8.70;99.90
9668;DHT22;4872;48.316;10.650;2023-05-16T04:12:56;8.70;99.90
9668;DHT22;4872;48.316;10.650;2023-05-16T04:15:22;8.80;99.90
9668;DHT22;4872;48.316;10.650;2023-05-16T04:17:49;8.80;99.90
9668;DHT22;4872;48.316;10.650;2023-05-16T04:20:16;8.80;99.90
9668;DHT22;4872;48.316;10.650;2023-05-16T04:22:45;8.80;99.90
9668;DHT22;4872;48.316;10.650;2023-05-16T04:25:13;8.70;99.90
9668;DHT22;4872;48.316;10.650;2023-05-16T04:27:39;8.60;99.90
9668;DHT22;4872;48.316;10.650;2023-05-16T04:30:07;8.60;99.90
9668;DHT22;4872;48.316;10.650;2023-05-16T04:32:35;8.50;99.90
9668;DHT22;4872;48.316;10.650;2023-05-16T04:35:02;8.40;99.90
9668;DHT22;4872;48.316;10.650;2023-05-16T04:37:29;8.40;99.90
9668;DHT22;4872;48.316;10.650;2023-05-16T04:39:57;8.50;99.90
9668;DHT22;4872;48.316;10.650;2023-05-16T04:42:24;8.90;99.90
9668;DHT22;4872;48.316;10.650;2023-05-16T04:44:51;8.40;99.90
9668;DHT22;4872;48.316;10.650;2023-05-16T04:47:18;8.30;99.90
9668;DHT22;4872;48.316;10.650;2023-05-16T04:49:45;8.30;99.90
9668;DHT22;4872;48.316;10.650;2023-05-16T04:52:12;8.30;99.90
9668;DHT22;4872;48.316;10.650;2023-05-16T04:54:38;8.30;99.90
9668;DHT22;4872;48.316;10.650;2023-05-16T04:57:07;8.30;99.90
9668;DHT22;4872;48.316;10.650;2023-05-16T04:59:33;8.40;99.90
9668;DHT22;4872;48.316;10.650;2023-05-16T05:02:00;8.40;99.90
9668;DHT22;4872;48.316;10.650;2023-05-16T05:04:28;8.50;99.90
9668;DHT22;4872;48.316;10.650;2023-05-16T05:06:55;8.60;99.90
9668;DHT22;4872;48.316;10.650;2023-05-16T05:09:22;8.60;99.90
9668;DHT22;4872;48.316;10.650;2023-05-16T05:11:49;8.60;99.90
9668;DHT22;4872;48.316;10.650;2023-05-16T05:14:17;8.70;99.90
9668;DHT22;4872;48.316;10.650;2023-05-16T05:16:43;9.60;99.90
9668;DHT22;4872;48.316;10.650;2023-05-16T05:19:10;9.80;99.90
9668;DHT22;4872;48.316;10.650;2023-05-16T05:21:37;9.00;99.90
9668;DHT22;4872;48.316;10.650;2023-05-16T05:24:05;9.00;99.90
9668;DHT22;4872;48.316;10.650;2023-05-16T05:26:32;9.00;99.90
9668;DHT22;4872;48.316;10.650;2023-05-16T05:28:58;10.20;99.90
9668;DHT22;4872;48.316;10.650;2023-05-16T05:31:27;9.70;99.90
9668;DHT22;4872;48.316;10.650;2023-05-16T05:33:53;9.20;99.90
9668;DHT22;4872;48.316;10.650;2023-05-16T05:36:21;9.20;99.90
9668;DHT22;4872;48.316;10.650;2023-05-16T05:38:48;9.20;99.90
9668;DHT22;4872;48.316;10.650;2023-05-16T05:41:14;9.20;99.90
9668;DHT22;4872;48.316;10.650;2023-05-16T05:43:41;9.20;99.90
9668;DHT22;4872;48.316;10.650;2023-05-16T05:46:08;9.30;99.90
9668;DHT22;4872;48.316;10.650;2023-05-16T05:48:36;9.50;99.90
9668;DHT22;4872;48.316;10.650;2023-05-16T05:51:03;9.50;99.90
9668;DHT22;4872;48.316;10.650;2023-05-16T05:53:30;9.60;99.90
9668;DHT22;4872;48.316;10.650;2023-05-16T05:55:57;9.70;99.90
9668;DHT22;4872;48.316;10.650;2023-05-16T05:58:23;9.90;99.90
9668;DHT22;4872;48.316;10.650;2023-05-16T06:00:50;9.90;99.90
9668;DHT22;4872;48.316;10.650;2023-05-16T06:03:17;10.10;99.90
9668;DHT22;4872;48.316;10.650;2023-05-16T06:05:46;10.10;99.90
9668;DHT22;4872;48.316;10.650;2023-05-16T06:08:13;10.10;99.90
9668;DHT22;4872;48.316;10.650;2023-05-16T06:10:40;10.10;99.90
9668;DHT22;4872;48.316;10.650;2023-05-16T06:13:07;11.20;99.90
9668;DHT22;4872;48.316;10.650;2023-05-16T06:15:33;11.10;99.90
9668;DHT22;4872;48.316;10.650;2023-05-16T06:18:00;10.30;99.90
9668;DHT22;4872;48.316;10.650;2023-05-16T06:20:27;10.50;99.90
9668;DHT22;4872;48.316;10.650;2023-05-16T06:22:55;10.80;99.90
9668;DHT22;4872;48.316;10.650;2023-05-16T06:25:22;10.50;99.90
9668;DHT22;4872;48.316;10.650;2023-05-16T06:27:49;10.50;99.90
9668;DHT22;4872;48.316;10.650;2023-05-16T06:30:16;10.40;99.90
9668;DHT22;4872;48.316;10.650;2023-05-16T06:32:42;10.60;99.90
9668;DHT22;4872;48.316;10.650;2023-05-16T06:35:09;10.70;99.90
9668;DHT22;4872;48.316;10.650;2023-05-16T06:37:36;11.10;99.90
9668;DHT22;4872;48.316;10.650;2023-05-16T06:40:05;10.80;99.90
9668;DHT22;4872;48.316;10.650;2023-05-16T06:42:32;10.70;99.90
9668;DHT22;4872;48.316;10.650;2023-05-16T06:44:59;11.00;99.90
9668;DHT22;4872;48.316;10.650;2023-05-16T06:47:26;10.80;99.90
9668;DHT22;4872;48.316;10.650;2023-05-16T06:49:53;11.00;99.90
9668;DHT22;4872;48.316;10.650;2023-05-16T06:52:20;10.80;99.90
9668;DHT22;4872;48.316;10.650;2023-05-16T06:54:47;10.90;99.90
9668;DHT22;4872;48.316;10.650;2023-05-16T06:57:15;11.00;99.90
9668;DHT22;4872;48.316;10.650;2023-05-16T06:59:42;11.10;99.90
9668;DHT22;4872;48.316;10.650;2023-05-16T07:02:09;11.60;99.90
9668;DHT22;4872;48.316;10.650;2023-05-16T07:04:35;11.50;99.90
9668;DHT22;4872;48.316;10.650;2023-05-16T07:07:03;11.30;99.90
9668;DHT22;4872;48.316;10.650;2023-05-16T07:09:32;11.60;99.90
9668;DHT22;4872;48.316;10.650;2023-05-16T07:11:59;11.70;99.90
9668;DHT22;4872;48.316;10.650;2023-05-16T07:14:27;11.60;99.90
9668;DHT22;4872;48.316;10.650;2023-05-16T07:16:53;11.80;99.90
9668;DHT22;4872;48.316;10.650;2023-05-16T07:19:20;11.80;99.90
9668;DHT22;4872;48.316;10.650;2023-05-16T07:21:47;12.00;99.90
9668;DHT22;4872;48.316;10.650;2023-05-16T07:24:14;12.20;99.90
9668;DHT22;4872;48.316;10.650;2023-05-16T07:26:40;12.50;99.90
9668;DHT22;4872;48.316;10.650;2023-05-16T07:29:07;12.40;99.90
9668;DHT22;4872;48.316;10.650;2023-05-16T07:31:35;13.20;99.90
9668;DHT22;4872;48.316;10.650;2023-05-16T07:34:02;12.50;99.90
9668;DHT22;4872;48.316;10.650;2023-05-16T07:36:29;12.40;99.90
9668;DHT22;4872;48.316;10.650;2023-05-16T07:38:56;12.70;99.90
9668;DHT22;4872;48.316;10.650;2023-05-16T07:41:22;13.40;99.90
9668;DHT22;4872;48.316;10.650;2023-05-16T07:43:50;13.30;99.90
9668;DHT22;4872;48.316;10.650;2023-05-16T07:46:16;13.00;99.90
9668;DHT22;4872;48.316;10.650;2023-05-16T07:48:44;13.00;99.90
9668;DHT22;4872;48.316;10.650;2023-05-16T07:51:11;13.00;99.90
9668;DHT22;4872;48.316;10.650;2023-05-16T07:53:38;13.30;99.90
9668;DHT22;4872;48.316;10.650;2023-05-16T07:56:06;13.10;99.90
9668;DHT22;4872;48.316;10.650;2023-05-16T07:58:33;13.30;99.90
9668;DHT22;4872;48.316;10.650;2023-05-16T08:01:00;13.30;99.90
9668;DHT22;4872;48.316;10.650;2023-05-16T08:03:27;13.30;99.90
9668;DHT22;4872;48.316;10.650;2023-05-16T08:05:55;13.30;99.90
9668;DHT22;4872;48.316;10.650;2023-05-16T08:08:22;13.40;99.90
9668;DHT22;4872;48.316;10.650;2023-05-16T08:10:48;13.80;99.90
9668;DHT22;4872;48.316;10.650;2023-05-16T08:13:15;13.30;99.90
9668;DHT22;4872;48.316;10.650;2023-05-16T08:15:42;13.40;99.90
9668;DHT22;4872;48.316;10.650;2023-05-16T08:18:12;13.30;99.90
9668;DHT22;4872;48.316;10.650;2023-05-16T08:20:39;13.20;99.90
9668;DHT22;4872;48.316;10.650;2023-05-16T08:23:08;13.30;99.90
9668;DHT22;4872;48.316;10.650;2023-05-16T08:25:35;13.40;99.90
9668;DHT22;4872;48.316;10.650;2023-05-16T08:28:01;13.40;99.90
9668;DHT22;4872;48.316;10.650;2023-05-16T08:30:28;13.40;99.90
9668;DHT22;4872;48.316;10.650;2023-05-16T08:32:55;13.30;99.90
9668;DHT22;4872;48.316;10.650;2023-05-16T08:35:22;13.50;99.90
9668;DHT22;4872;48.316;10.650;2023-05-16T08:37:48;13.40;99.90
9668;DHT22;4872;48.316;10.650;2023-05-16T08:40:17;13.60;99.90
9668;DHT22;4872;48.316;10.650;2023-05-16T08:42:44;13.70;99.90
9668;DHT22;4872;48.316;10.650;2023-05-16T08:45:11;13.70;99.90
9668;DHT22;4872;48.316;10.650;2023-05-16T08:47:39;13.80;99.90
9668;DHT22;4872;48.316;10.650;2023-05-16T08:50:08;13.70;99.90
9668;DHT22;4872;48.316;10.650;2023-05-16T08:52:37;13.80;99.90
9668;DHT22;4872;48.316;10.650;2023-05-16T08:55:06;13.70;99.90
9668;DHT22;4872;48.316;10.650;2023-05-16T08:57:37;13.80;99.90
9668;DHT22;4872;48.316;10.650;2023-05-16T09:00:06;14.00;99.90
9668;DHT22;4872;48.316;10.650;2023-05-16T09:02:36;13.90;99.90
9668;DHT22;4872;48.316;10.650;2023-05-16T09:05:05;13.90;99.90
9668;DHT22;4872;48.316;10.650;2023-05-16T09:07:33;13.90;99.90
9668;DHT22;4872;48.316;10.650;2023-05-16T09:10:00;13.90;99.90
9668;DHT22;4872;48.316;10.650;2023-05-16T09:12:27;14.00;99.90
9668;DHT22;4872;48.316;10.650;2023-05-16T09:14:55;13.90;99.90
9668;DHT22;4872;48.316;10.650;2023-05-16T09:17:23;13.90;99.90
9668;DHT22;4872;48.316;10.650;2023-05-16T09:19:50;14.60;99.90
9668;DHT22;4872;48.316;10.650;2023-05-16T09:22:22;14.20;99.90
9668;DHT22;4872;48.316;10.650;2023-05-16T09:24:49;14.00;99.90
9668;DHT22;4872;48.316;10.650;2023-05-16T09:27:16;14.00;99.90
9668;DHT22;4872;48.316;10.650;2023-05-16T09:29:45;14.10;99.90
9668;DHT22;4872;48.316;10.650;2023-05-16T09:32:15;14.00;99.90
9668;DHT22;4872;48.316;10.650;2023-05-16T09:34:43;14.00;99.90
9668;DHT22;4872;48.316;10.650;2023-05-16T09:37:10;14.20;99.90
9668;DHT22;4872;48.316;10.650;2023-05-16T09:39:39;14.30;99.90
9668;DHT22;4872;48.316;10.650;2023-05-16T09:42:10;14.20;99.90
9668;DHT22;4872;48.316;10.650;2023-05-16T09:44:37;14.50;99.90
9668;DHT22;4872;48.316;10.650;2023-05-16T09:47:05;14.80;99.90
9668;DHT22;4872;48.316;10.650;2023-05-16T09:49:35;14.80;99.90
9668;DHT22;4872;48.316;10.650;2023-05-16T09:52:03;15.10;99.90
9668;DHT22;4872;48.316;10.650;2023-05-16T09:54:30;15.20;99.90
9668;DHT22;4872;48.316;10.650;2023-05-16T09:56:58;15.30;99.90
9668;DHT22;4872;48.316;10.650;2023-05-16T09:59:27;15.30;99.90
9668;DHT22;4872;48.316;10.650;2023-05-16T10:01:56;15.50;99.90
9668;DHT22;4872;48.316;10.650;2023-05-16T10:04:23;15.50;99.90
9668;DHT22;4872;48.316;10.650;2023-05-16T10:06:54;15.70;99.90
9668;DHT22;4872;48.316;10.650;2023-05-16T10:09:22;15.80;99.90
9668;DHT22;4872;48.316;10.650;2023-05-16T10:11:53;15.80;99.90
9668;DHT22;4872;48.316;10.650;2023-05-16T10:14:21;15.90;99.90
9668;DHT22;4872;48.316;10.650;2023-05-16T10:16:50;16.20;99.90
9668;DHT22;4872;48.316;10.650;2023-05-16T10:19:19;16.00;99.90
9668;DHT22;4872;48.316;10.650;2023-05-16T10:21:52;15.90;99.90
9668;DHT22;4872;48.316;10.650;2023-05-16T10:24:25;16.00;99.90
9668;DHT22;4872;48.316;10.650;2023-05-16T10:26:52;16.00;99.90
9668;DHT22;4872;48.316;10.650;2023-05-16T10:29:19;16.10;99.70
9668;DHT22;4872;48.316;10.650;2023-05-16T10:31:47;16.20;99.90
9668;DHT22;4872;48.316;10.650;2023-05-16T10:34:15;16.20;99.60
9668;DHT22;4872;48.316;10.650;2023-05-16T10:36:42;16.20;99.70
9668;DHT22;4872;48.316;10.650;2023-05-16T10:39:11;16.30;99.60
9668;DHT22;4872;48.316;10.650;2023-05-16T10:41:39;16.30;99.40
9668;DHT22;4872;48.316;10.650;2023-05-16T10:44:12;16.20;99.30
9668;DHT22;4872;48.316;10.650;2023-05-16T10:46:39;16.20;99.50
9668;DHT22;4872;48.316;10.650;2023-05-16T10:49:19;16.30;99.40
9668;DHT22;4872;48.316;10.650;2023-05-16T10:52:01;16.20;99.60
9668;DHT22;4872;48.316;10.650;2023-05-16T10:54:34;16.20;99.90
9668;DHT22;4872;48.316;10.650;2023-05-16T10:57:05;16.20;99.80
9668;DHT22;4872;48.316;10.650;2023-05-16T10:59:40;16.40;99.90
9668;DHT22;4872;48.316;10.650;2023-05-16T11:02:24;16.40;99.90
9668;DHT22;4872;48.316;10.650;2023-05-16T11:04:53;16.40;99.60
9668;DHT22;4872;48.316;10.650;2023-05-16T11:07:22;16.40;99.30
9668;DHT22;4872;48.316;10.650;2023-05-16T11:10:05;16.30;99.50
9668;DHT22;4872;48.316;10.650;2023-05-16T11:12:51;16.40;99.80
9668;DHT22;4872;48.316;10.650;2023-05-16T11:15:22;16.40;99.40
9668;DHT22;4872;48.316;10.650;2023-05-16T11:17:49;16.40;99.40
9668;DHT22;4872;48.316;10.650;2023-05-16T11:20:25;16.40;99.50
9668;DHT22;4872;48.316;10.650;2023-05-16T11:23:20;16.40;99.00
9668;DHT22;4872;48.316;10.650;2023-05-16T11:25:51;16.50;98.80
9668;DHT22;4872;48.316;10.650;2023-05-16T11:28:19;16.50;99.00
9668;DHT22;4872;48.316;10.650;2023-05-16T11:30:47;16.50;99.00
9668;DHT22;4872;48.316;10.650;2023-05-16T11:33:14;16.70;99.00
9668;DHT22;4872;48.316;10.650;2023-05-16T11:35:41;16.70;98.70
9668;DHT22;4872;48.316;10.650;2023-05-16T11:38:12;16.70;98.00
9668;DHT22;4872;48.316;10.650;2023-05-16T11:40:42;16.60;98.20
9668;DHT22;4872;48.316;10.650;2023-05-16T11:43:11;16.50;98.50
9668;DHT22;4872;48.316;10.650;2023-05-16T11:45:43;16.50;98.90
9668;DHT22;4872;48.316;10.650;2023-05-16T11:48:11;16.10;99.30
9668;DHT22;4872;48.316;10.650;2023-05-16T11:50:38;15.80;99.40
9668;DHT22;4872;48.316;10.650;2023-05-16T11:53:05;15.60;99.70
9668;DHT22;4872;48.316;10.650;2023-05-16T11:55:33;15.30;99.90
9668;DHT22;4872;48.316;10.650;2023-05-16T11:58:00;15.10;99.90
9668;DHT22;4872;48.316;10.650;2023-05-16T12:00:28;14.90;99.90
9668;DHT22;4872;48.316;10.650;2023-05-16T12:03:01;14.60;99.90
9668;DHT22;4872;48.316;10.650;2023-05-16T12:05:29;14.50;99.90
9668;DHT22;4872;48.316;10.650;2023-05-16T12:07:57;14.40;99.90
9668;DHT22;4872;48.316;10.650;2023-05-16T12:10:24;14.30;99.90
9668;DHT22;4872;48.316;10.650;2023-05-16T12:12:51;14.30;99.90
9668;DHT22;4872;48.316;10.650;2023-05-16T12:15:18;14.20;99.90
9668;DHT22;4872;48.316;10.650;2023-05-16T12:17:47;13.90;99.90
9668;DHT22;4872;48.316;10.650;2023-05-16T12:20:15;13.80;99.90
9668;DHT22;4872;48.316;10.650;2023-05-16T12:22:43;13.70;99.90
9668;DHT22;4872;48.316;10.650;2023-05-16T12:25:21;13.60;99.90
9668;DHT22;4872;48.316;10.650;2023-05-16T12:27:49;13.50;99.90
9668;DHT22;4872;48.316;10.650;2023-05-16T12:30:16;13.20;99.90
9668;DHT22;4872;48.316;10.650;2023-05-16T12:32:43;13.10;99.90
9668;DHT22;4872;48.316;10.650;2023-05-16T12:35:11;13.00;99.90
9668;DHT22;4872;48.316;10.650;2023-05-16T12:37:38;12.90;99.90
9668;DHT22;4872;48.316;10.650;2023-05-16T12:40:08;12.90;99.90
9668;DHT22;4872;48.316;10.650;2023-05-16T12:42:37;12.80;99.90
9668;DHT22;4872;48.316;10.650;2023-05-16T12:45:05;12.80;99.90
9668;DHT22;4872;48.316;10.650;2023-05-16T12:47:39;12.90;99.90
9668;DHT22;4872;48.316;10.650;2023-05-16T12:50:08;12.80;99.90
9668;DHT22;4872;48.316;10.650;2023-05-16T12:52:45;12.90;99.90
9668;DHT22;4872;48.316;10.650;2023-05-16T12:55:12;12.90;99.90
9668;DHT22;4872;48.316;10.650;2023-05-16T12:57:41;12.90;99.90
9668;DHT22;4872;48.316;10.650;2023-05-16T13:00:09;12.90;99.90
9668;DHT22;4872;48.316;10.650;2023-05-16T13:02:37;12.90;99.90
9668;DHT22;4872;48.316;10.650;2023-05-16T13:05:04;12.90;99.90
9668;DHT22;4872;48.316;10.650;2023-05-16T13:07:32;12.90;99.90
9668;DHT22;4872;48.316;10.650;2023-05-16T13:10:00;12.90;99.90
9668;DHT22;4872;48.316;10.650;2023-05-16T13:12:27;12.90;99.90
9668;DHT22;4872;48.316;10.650;2023-05-16T13:14:54;12.90;99.90
9668;DHT22;4872;48.316;10.650;2023-05-16T13:17:21;12.80;99.90
9668;DHT22;4872;48.316;10.650;2023-05-16T13:19:49;12.80;99.90
9668;DHT22;4872;48.316;10.650;2023-05-16T13:22:16;12.70;99.90
9668;DHT22;4872;48.316;10.650;2023-05-16T13:24:42;12.50;99.90
9668;DHT22;4872;48.316;10.650;2023-05-16T13:27:11;12.60;99.90
9668;DHT22;4872;48.316;10.650;2023-05-16T13:29:37;13.10;99.90
9668;DHT22;4872;48.316;10.650;2023-05-16T13:32:05;12.20;99.90
9668;DHT22;4872;48.316;10.650;2023-05-16T13:34:32;12.20;99.90
9668;DHT22;4872;48.316;10.650;2023-05-16T13:36:59;12.20;99.90
9668;DHT22;4872;48.316;10.650;2023-05-16T13:39:26;12.00;99.90
9668;DHT22;4872;48.316;10.650;2023-05-16T13:41:53;11.90;99.90
9668;DHT22;4872;48.316;10.650;2023-05-16T13:44:21;11.80;99.90
9668;DHT22;4872;48.316;10.650;2023-05-16T13:46:47;11.90;99.90
9668;DHT22;4872;48.316;10.650;2023-05-16T13:49:14;11.90;99.90
9668;DHT22;4872;48.316;10.650;2023-05-16T13:51:41;11.90;99.90
9668;DHT22;4872;48.316;10.650;2023-05-16T13:54:08;12.10;99.90
9668;DHT22;4872;48.316;10.650;2023-05-16T13:56:35;12.00;99.90
9668;DHT22;4872;48.316;10.650;2023-05-16T13:59:01;12.10;99.90
9668;DHT22;4872;48.316;10.650;2023-05-16T14:01:29;12.10;99.90
9668;DHT22;4872;48.316;10.650;2023-05-16T14:03:56;12.10;99.90
9668;DHT22;4872;48.316;10.650;2023-05-16T14:06:23;13.00;99.90
9668;DHT22;4872;48.316;10.650;2023-05-16T14:08:50;12.20;99.90
9668;DHT22;4872;48.316;10.650;2023-05-16T14:11:16;13.10;99.90
9668;DHT22;4872;48.316;10.650;2023-05-16T14:13:44;13.20;99.90
9668;DHT22;4872;48.316;10.650;2023-05-16T14:16:11;12.20;99.90
9668;DHT22;4872;48.316;10.650;2023-05-16T14:18:39;12.00;99.90
9668;DHT22;4872;48.316;10.650;2023-05-16T14:21:05;11.80;99.90
9668;DHT22;4872;48.316;10.650;2023-05-16T14:23:32;11.80;99.90
9668;DHT22;4872;48.316;10.650;2023-05-16T14:25:59;12.00;99.90
9668;DHT22;4872;48.316;10.650;2023-05-16T14:28:27;11.90;99.90
9668;DHT22;4872;48.316;10.650;2023-05-16T14:30:53;11.90;99.90
9668;DHT22;4872;48.316;10.650;2023-05-16T14:33:20;11.80;99.90
9668;DHT22;4872;48.316;10.650;2023-05-16T14:35:48;12.60;99.90
9668;DHT22;4872;48.316;10.650;2023-05-16T14:38:16;12.00;99.90
9668;DHT22;4872;48.316;10.650;2023-05-16T14:40:43;12.10;99.90
9668;DHT22;4872;48.316;10.650;2023-05-16T14:43:10;12.60;99.90
9668;DHT22;4872;48.316;10.650;2023-05-16T14:45:37;12.00;99.90
9668;DHT22;4872;48.316;10.650;2023-05-16T14:48:05;12.00;99.90
9668;DHT22;4872;48.316;10.650;2023-05-16T14:50:32;11.90;99.90
9668;DHT22;4872;48.316;10.650;2023-05-16T14:53:00;12.10;99.90
9668;DHT22;4872;48.316;10.650;2023-05-16T14:55:28;12.60;99.90
9668;DHT22;4872;48.316;10.650;2023-05-16T14:57:54;12.00;99.90
9668;DHT22;4872;48.316;10.650;2023-05-16T15:00:22;11.80;99.90
9668;DHT22;4872;48.316;10.650;2023-05-16T15:02:50;11.80;99.90
9668;DHT22;4872;48.316;10.650;2023-05-16T15:05:17;12.10;99.90
9668;DHT22;4872;48.316;10.650;2023-05-16T15:07:44;11.80;99.90
9668;DHT22;4872;48.316;10.650;2023-05-16T15:10:12;11.70;99.90
9668;DHT22;4872;48.316;10.650;2023-05-16T15:12:38;11.80;99.90
9668;DHT22;4872;48.316;10.650;2023-05-16T15:15:08;11.60;99.90
9668;DHT22;4872;48.316;10.650;2023-05-16T15:17:36;11.60;99.90
9668;DHT22;4872;48.316;10.650;2023-05-16T15:20:05;11.60;99.90
9668;DHT22;4872;48.316;10.650;2023-05-16T15:22:32;11.60;99.90
9668;DHT22;4872;48.316;10.650;2023-05-16T15:24:59;11.60;99.90
9668;DHT22;4872;48.316;10.650;2023-05-16T15:27:27;11.60;99.90
9668;DHT22;4872;48.316;10.650;2023-05-16T15:29:54;11.60;99.90
9668;DHT22;4872;48.316;10.650;2023-05-16T15:32:21;12.00;99.90
9668;DHT22;4872;48.316;10.650;2023-05-16T15:34:48;11.50;99.90
9668;DHT22;4872;48.316;10.650;2023-05-16T15:37:15;11.50;99.90
9668;DHT22;4872;48.316;10.650;2023-05-16T15:39:41;11.60;99.90
9668;DHT22;4872;48.316;10.650;2023-05-16T15:42:08;11.50;99.90
9668;DHT22;4872;48.316;10.650;2023-05-16T15:44:37;11.10;99.90
9668;DHT22;4872;48.316;10.650;2023-05-16T15:47:04;11.30;99.90
9668;DHT22;4872;48.316;10.650;2023-05-16T15:49:31;11.40;99.90
9668;DHT22;4872;48.316;10.650;2023-05-16T15:51:58;11.60;99.90
9668;DHT22;4872;48.316;10.650;2023-05-16T15:54:26;12.40;99.90
9668;DHT22;4872;48.316;10.650;2023-05-16T15:56:53;11.60;99.90
9668;DHT22;4872;48.316;10.650;2023-05-16T15:59:19;12.10;99.90
9668;DHT22;4872;48.316;10.650;2023-05-16T16:01:47;12.30;99.90
9668;DHT22;4872;48.316;10.650;2023-05-16T16:04:16;11.80;99.90
9668;DHT22;4872;48.316;10.650;2023-05-16T16:06:43;11.60;99.90
9668;DHT22;4872;48.316;10.650;2023-05-16T16:09:09;11.70;99.90
9668;DHT22;4872;48.316;10.650;2023-05-16T16:11:36;11.70;99.90
9668;DHT22;4872;48.316;10.650;2023-05-16T16:14:03;11.70;99.90
9668;DHT22;4872;48.316;10.650;2023-05-16T16:16:30;11.60;99.90
9668;DHT22;4872;48.316;10.650;2023-05-16T16:18:58;11.50;99.90
9668;DHT22;4872;48.316;10.650;2023-05-16T16:21:25;11.60;99.90
9668;DHT22;4872;48.316;10.650;2023-05-16T16:23:51;11.50;99.90
9668;DHT22;4872;48.316;10.650;2023-05-16T16:26:18;11.40;99.90
9668;DHT22;4872;48.316;10.650;2023-05-16T16:28:45;11.50;99.90
9668;DHT22;4872;48.316;10.650;2023-05-16T16:31:14;11.50;99.90
9668;DHT22;4872;48.316;10.650;2023-05-16T16:33:41;11.60;99.90
9668;DHT22;4872;48.316;10.650;2023-05-16T16:36:10;11.70;99.90
9668;DHT22;4872;48.316;10.650;2023-05-16T16:38:36;11.60;99.90
9668;DHT22;4872;48.316;10.650;2023-05-16T16:41:03;11.70;99.90
9668;DHT22;4872;48.316;10.650;2023-05-16T16:43:30;11.70;99.90
9668;DHT22;4872;48.316;10.650;2023-05-16T16:45:57;11.70;99.90
9668;DHT22;4872;48.316;10.650;2023-05-16T16:48:24;11.80;99.90
9668;DHT22;4872;48.316;10.650;2023-05-16T16:50:51;12.80;99.90
9668;DHT22;4872;48.316;10.650;2023-05-16T16:53:19;11.80;99.90
9668;DHT22;4872;48.316;10.650;2023-05-16T16:55:46;11.80;99.90
9668;DHT22;4872;48.316;10.650;2023-05-16T16:58:13;11.70;99.90
9668;DHT22;4872;48.316;10.650;2023-05-16T17:00:39;11.70;99.90
9668;DHT22;4872;48.316;10.650;2023-05-16T17:03:06;11.70;99.90
9668;DHT22;4872;48.316;10.650;2023-05-16T17:05:33;11.70;99.90
9668;DHT22;4872;48.316;10.650;2023-05-16T17:08:00;11.70;99.90
9668;DHT22;4872;48.316;10.650;2023-05-16T17:10:28;11.70;99.90
9668;DHT22;4872;48.316;10.650;2023-05-16T17:12:55;11.70;99.90
9668;DHT22;4872;48.316;10.650;2023-05-16T17:15:27;11.70;99.90
9668;DHT22;4872;48.316;10.650;2023-05-16T17:17:54;11.70;99.90
9668;DHT22;4872;48.316;10.650;2023-05-16T17:20:21;11.70;99.90
9668;DHT22;4872;48.316;10.650;2023-05-16T17:22:47;11.70;99.90
9668;DHT22;4872;48.316;10.650;2023-05-16T17:25:14;11.70;99.90
9668;DHT22;4872;48.316;10.650;2023-05-16T17:27:42;11.70;99.90
9668;DHT22;4872;48.316;10.650;2023-05-16T17:30:10;11.60;99.90
9668;DHT22;4872;48.316;10.650;2023-05-16T17:32:38;11.60;99.90
9668;DHT22;4872;48.316;10.650;2023-05-16T17:35:05;12.00;99.90
9668;DHT22;4872;48.316;10.650;2023-05-16T17:37:32;11.60;99.90
9668;DHT22;4872;48.316;10.650;2023-05-16T17:39:58;11.60;99.90
9668;DHT22;4872;48.316;10.650;2023-05-16T17:42:25;11.60;99.90
9668;DHT22;4872;48.316;10.650;2023-05-16T17:44:53;11.60;99.90
9668;DHT22;4872;48.316;10.650;2023-05-16T17:47:20;11.60;99.90
9668;DHT22;4872;48.316;10.650;2023-05-16T17:49:47;11.60;99.90
9668;DHT22;4872;48.316;10.650;2023-05-16T17:52:14;11.60;99.90
9668;DHT22;4872;48.316;10.650;2023-05-16T17:54:41;11.60;99.90
9668;DHT22;4872;48.316;10.650;2023-05-16T17:57:08;11.50;99.90
9668;DHT22;4872;48.316;10.650;2023-05-16T17:59:34;11.50;99.90
9668;DHT22;4872;48.316;10.650;2023-05-16T18:02:03;11.60;99.90
9668;DHT22;4872;48.316;10.650;2023-05-16T18:04:30;11.50;99.90
9668;DHT22;4872;48.316;10.650;2023-05-16T18:06:57;11.40;99.90
9668;DHT22;4872;48.316;10.650;2023-05-16T18:09:24;11.40;99.90
9668;DHT22;4872;48.316;10.650;2023-05-16T18:11:51;11.40;99.90
9668;DHT22;4872;48.316;10.650;2023-05-16T18:14:18;12.00;99.90
9668;DHT22;4872;48.316;10.650;2023-05-16T18:16:45;11.30;99.90
9668;DHT22;4872;48.316;10.650;2023-05-16T18:19:13;11.20;99.90
9668;DHT22;4872;48.316;10.650;2023-05-16T18:21:40;11.20;99.90
9668;DHT22;4872;48.316;10.650;2023-05-16T18:24:08;11.20;99.90
9668;DHT22;4872;48.316;10.650;2023-05-16T18:26:37;11.10;99.90
9668;DHT22;4872;48.316;10.650;2023-05-16T18:29:04;11.10;99.90
9668;DHT22;4872;48.316;10.650;2023-05-16T18:31:31;11.10;99.90
9668;DHT22;4872;48.316;10.650;2023-05-16T18:33:58;11.00;99.90
9668;DHT22;4872;48.316;10.650;2023-05-16T18:36:27;11.00;99.90
9668;DHT22;4872;48.316;10.650;2023-05-16T18:38:54;11.00;99.90
9668;DHT22;4872;48.316;10.650;2023-05-16T18:41:21;11.00;99.90
9668;DHT22;4872;48.316;10.650;2023-05-16T18:43:47;11.00;99.90
9668;DHT22;4872;48.316;10.650;2023-05-16T18:46:14;11.00;99.90
9668;DHT22;4872;48.316;10.650;2023-05-16T18:48:41;11.00;99.90
9668;DHT22;4872;48.316;10.650;2023-05-16T18:51:08;11.00;99.90
9668;DHT22;4872;48.316;10.650;2023-05-16T18:53:36;11.00;99.90
9668;DHT22;4872;48.316;10.650;2023-05-16T18:56:03;11.00;99.90
9668;DHT22;4872;48.316;10.650;2023-05-16T18:58:30;10.90;99.90
9668;DHT22;4872;48.316;10.650;2023-05-16T19:00:56;10.90;99.90
9668;DHT22;4872;48.316;10.650;2023-05-16T19:03:23;10.90;99.90
9668;DHT22;4872;48.316;10.650;2023-05-16T19:05:50;10.80;99.90
9668;DHT22;4872;48.316;10.650;2023-05-16T19:08:16;11.00;99.90
9668;DHT22;4872;48.316;10.650;2023-05-16T19:10:45;11.80;99.90
9668;DHT22;4872;48.316;10.650;2023-05-16T19:13:11;11.60;99.90
9668;DHT22;4872;48.316;10.650;2023-05-16T19:15:38;10.90;99.90
9668;DHT22;4872;48.316;10.650;2023-05-16T19:18:05;10.90;99.90
9668;DHT22;4872;48.316;10.650;2023-05-16T19:20:33;11.50;99.90
9668;DHT22;4872;48.316;10.650;2023-05-16T19:23:00;10.80;99.90
9668;DHT22;4872;48.316;10.650;2023-05-16T19:25:27;10.80;99.90
9668;DHT22;4872;48.316;10.650;2023-05-16T19:27:55;10.80;99.90
9668;DHT22;4872;48.316;10.650;2023-05-16T19:30:22;10.80;99.90
9668;DHT22;4872;48.316;10.650;2023-05-16T19:32:49;10.90;99.90
9668;DHT22;4872;48.316;10.650;2023-05-16T19:35:16;10.80;99.90
9668;DHT22;4872;48.316;10.650;2023-05-16T19:37:44;10.80;99.90
9668;DHT22;4872;48.316;10.650;2023-05-16T19:40:10;10.70;99.90
9668;DHT22;4872;48.316;10.650;2023-05-16T19:42:37;10.70;99.90
9668;DHT22;4872;48.316;10.650;2023-05-16T19:45:07;10.70;99.90
9668;DHT22;4872;48.316;10.650;2023-05-16T19:47:34;10.70;99.90
9668;DHT22;4872;48.316;10.650;2023-05-16T19:50:01;10.70;99.90
9668;DHT22;4872;48.316;10.650;2023-05-16T19:52:27;10.60;99.90
9668;DHT22;4872;48.316;10.650;2023-05-16T19:54:54;10.80;99.90